Cherokee — 9HBC7 — position and weather

sailwx.info

Track history (hours):
 
Tides and Currents Weather Stations Pressure Air Temp Water Temp Dewpoint Dewpoint Depression Visibility Wind Speed Wind Dir Waves Ship Positions

Cherokee

Last reported at 2017-May-19 03:04 UTC. Time now 2017-May-27 23:14 UTC.
Position N 33°00' E 034°46'.
Warning: this ship's position is 8 days out of date.

Length 140 m; draft 2.7 m.

Type: Cargo ship. MMSI: 215059000.

Date/timePositionNaut miles runAvg speedWind from/ knotsBaromVisibWave heightAir tempDewpointWater temp
2017-May-19 03:04N 33°00' E 034°46'1 6.7
2017-May-19 02:58N 32°60' E 034°47'3 6.7
2017-May-19 02:28N 32°57' E 034°50'3 6.6
2017-May-19 02:01N 32°55' E 034°52'3 6.4
2017-May-19 01:31N 32°54' E 034°56'3 7.0
2017-May-19 01:01N 32°52' E 034°59'3 5.5
2017-May-19 00:31N 32°49' E 035°01'1 1.9
2017-May-19 00:00N 32°49' E 034°60'0 0.0
2017-May-18 23:30N 32°49' E 034°60'0 0.0
2017-May-18 23:00N 32°49' E 034°60'0 0.0
2017-May-18 22:30N 32°49' E 034°60'0 0.0
2017-May-18 22:00N 32°49' E 034°60'0 0.0
2017-May-18 21:30N 32°49' E 034°60'0 0.0
2017-May-18 21:00N 32°49' E 034°60'0 0.0
2017-May-18 20:30N 32°49' E 034°60'0 0.0
2017-May-18 20:00N 32°49' E 034°60'0 0.0
2017-May-18 19:30N 32°49' E 034°60'0 0.0
2017-May-18 19:00N 32°49' E 034°60'0 0.0
2017-May-18 18:30N 32°49' E 034°60'0 0.0
2017-May-18 18:00N 32°49' E 034°60'0 0.0
2017-May-18 17:30N 32°49' E 034°60'0 0.0
2017-May-18 16:54N 32°49' E 034°60'0 0.0
2017-May-18 16:30N 32°49' E 034°60'0 0.0
2017-May-18 16:00N 32°49' E 034°60'0 0.0
2017-May-18 15:30N 32°49' E 034°60'0 0.0
2017-May-18 15:00N 32°49' E 034°60'0 0.0
2017-May-18 14:00N 32°49' E 034°60'0 0.0
2017-May-18 13:30N 32°49' E 034°60'0 0.0
2017-May-18 13:00N 32°49' E 034°60'0 0.0
2017-May-18 12:30N 32°49' E 034°60'0 0.0
2017-May-18 12:00N 32°49' E 034°60'0 0.0
2017-May-18 11:30N 32°49' E 034°60'0 0.0
2017-May-18 11:00N 32°49' E 034°60'0 0.0
2017-May-18 10:30N 32°49' E 034°60'0 0.0
2017-May-18 10:00N 32°49' E 034°60'0 0.0
2017-May-18 09:30N 32°49' E 034°60'0 0.0
2017-May-18 09:00N 32°49' E 034°60'0 0.0
2017-May-18 08:30N 32°49' E 034°60'0 0.0
2017-May-18 08:00N 32°49' E 034°60'1 2.6
2017-May-18 07:30N 32°50' E 035°01'1 1.0
2017-May-18 06:49N 32°51' E 035°00'0 0.0
2017-May-18 06:28N 32°51' E 035°00'0 0.0
2017-May-18 05:58N 32°51' E 035°00'0 0.0
2017-May-18 05:28N 32°51' E 035°00'0 0.0
2017-May-18 04:58N 32°51' E 035°00'0 0.0
2017-May-18 04:28N 32°51' E 035°00'0 0.0
2017-May-18 03:58N 32°51' E 035°00'0 0.0
2017-May-18 03:28N 32°51' E 035°00'0 0.0
2017-May-18 02:58N 32°51' E 035°00'0 0.0
2017-May-18 02:28N 32°51' E 035°00'0 0.0
2017-May-18 01:58N 32°51' E 035°00'0 0.0
2017-May-18 01:28N 32°51' E 035°00'0 0.0
2017-May-18 00:58N 32°51' E 035°00'0 0.0
2017-May-18 00:28N 32°51' E 035°00'0 0.0
2017-May-17 23:58N 32°51' E 035°00'0 0.0
2017-May-17 23:28N 32°51' E 035°00'0 0.0
2017-May-17 22:58N 32°51' E 035°00'0 0.0
2017-May-17 22:28N 32°51' E 035°00'0 0.0
2017-May-17 21:58N 32°51' E 035°00'0 0.0
2017-May-17 21:28N 32°51' E 035°00'0 0.0
2017-May-17 20:58N 32°51' E 035°00'0 0.0
2017-May-17 20:28N 32°51' E 035°00'0 0.0
2017-May-17 19:58N 32°51' E 035°00'0 0.0
2017-May-17 19:28N 32°51' E 035°00'0 0.0
2017-May-17 18:58N 32°51' E 035°00'0 0.0
2017-May-17 16:07N 32°51' E 035°00'0 0.0
2017-May-17 15:58N 32°51' E 035°00'0 0.0
2017-May-17 15:28N 32°51' E 035°00'0 0.0
2017-May-17 14:58N 32°51' E 035°00'0 0.0
2017-May-17 14:28N 32°51' E 035°00'0 0.0
2017-May-17 13:28N 32°51' E 035°00'0 0.0
2017-May-17 12:58N 32°51' E 035°00'0 0.0
2017-May-17 12:28N 32°51' E 035°00'0 0.0
2017-May-17 11:58N 32°51' E 035°00'0 0.0
2017-May-17 11:28N 32°51' E 035°00'0 0.0
2017-May-17 10:58N 32°51' E 035°00'0 0.0
2017-May-17 10:28N 32°51' E 035°00'0 0.0
2017-May-17 09:58N 32°51' E 035°00'0 0.0
2017-May-17 09:28N 32°51' E 035°00'0 0.0
2017-May-17 08:58N 32°51' E 035°00'0 0.0
2017-May-17 08:28N 32°51' E 035°00'0 0.0
2017-May-17 07:58N 32°51' E 035°00'0 0.0
2017-May-17 07:28N 32°51' E 035°00'0 0.0
2017-May-17 06:58N 32°51' E 035°00'0 0.0
2017-May-17 06:28N 32°51' E 035°00'0 0.0
2017-May-17 05:58N 32°51' E 035°00'0 0.0
2017-May-17 05:28N 32°51' E 035°00'0 0.0
2017-May-17 04:58N 32°51' E 035°00'0 0.0
2017-May-17 04:28N 32°51' E 035°00'0 0.0
2017-May-17 03:58N 32°51' E 035°00'0 0.0
2017-May-17 03:28N 32°51' E 035°00'0 0.0
2017-May-17 02:58N 32°51' E 035°00'0 0.0
2017-May-17 02:28N 32°51' E 035°00'0 0.0
2017-May-17 01:58N 32°51' E 035°00'0 0.0
2017-May-17 01:28N 32°51' E 035°00'0 0.0
2017-May-17 00:58N 32°51' E 035°00'0 0.0
2017-May-17 00:28N 32°51' E 035°00'0 0.0
2017-May-16 23:58N 32°51' E 035°00'0 0.0
2017-May-16 23:28N 32°51' E 035°00'0 0.0
2017-May-16 22:55N 32°51' E 035°00'0 0.0
2017-May-16 22:28N 32°51' E 035°00'0 0.0
2017-May-16 21:58N 32°51' E 035°00'0 0.0
2017-May-16 21:28N 32°51' E 035°00'0 0.0
2017-May-16 20:58N 32°51' E 035°00'0 0.0
2017-May-16 20:28N 32°51' E 035°00'0 0.0
2017-May-16 19:58N 32°51' E 035°00'0 0.0
2017-May-16 19:28N 32°51' E 035°00'0 0.0
2017-May-16 18:58N 32°51' E 035°00'0 0.0
2017-May-16 18:28N 32°51' E 035°00'0 0.0
2017-May-16 17:58N 32°51' E 035°00'0 0.0
2017-May-16 17:28N 32°51' E 035°00'0 0.0
2017-May-16 16:58N 32°51' E 035°00'0 0.0
2017-May-16 16:28N 32°51' E 035°00'0 0.0
2017-May-16 15:58N 32°51' E 035°00'0 0.0
2017-May-16 15:28N 32°51' E 035°00'0 0.0
2017-May-16 14:58N 32°51' E 035°00'0 0.0
2017-May-16 14:28N 32°51' E 035°00'0 0.0
2017-May-16 13:28N 32°51' E 035°00'0 0.0
2017-May-16 12:58N 32°51' E 035°00'0 0.0
2017-May-16 12:28N 32°51' E 035°00'0 0.0
2017-May-16 11:58N 32°51' E 035°00'0 0.0
2017-May-16 11:28N 32°51' E 035°00'0 0.0
2017-May-16 10:58N 32°51' E 035°00'0 0.0
2017-May-16 10:28N 32°51' E 035°00'0 0.0
2017-May-16 09:58N 32°51' E 035°00'0 0.0
2017-May-16 09:28N 32°51' E 035°00'0 0.0
2017-May-16 08:58N 32°51' E 035°00'0 0.0
2017-May-16 08:28N 32°51' E 035°00'0 0.0
2017-May-16 07:58N 32°51' E 035°00'0 0.1
2017-May-16 07:28N 32°51' E 035°00'0 0.0
2017-May-16 06:58N 32°51' E 035°00'0 0.0
2017-May-16 06:28N 32°51' E 035°00'0 0.0
2017-May-16 05:58N 32°51' E 035°00'0 0.0
2017-May-16 05:28N 32°51' E 035°00'0 0.0
2017-May-16 04:58N 32°51' E 035°00'0 0.1
2017-May-16 04:28N 32°51' E 035°00'0 0.0
2017-May-16 03:58N 32°51' E 035°00'0 0.0
2017-May-16 03:28N 32°51' E 035°00'0 0.0
2017-May-16 02:58N 32°51' E 035°00'0 0.0
2017-May-16 02:28N 32°51' E 035°00'0 0.0
2017-May-16 01:58N 32°51' E 035°00'0 0.0
2017-May-16 01:28N 32°51' E 035°00'0 0.0
2017-May-16 00:55N 32°51' E 035°00'0 0.0
2017-May-16 00:28N 32°51' E 035°00'0 0.0
2017-May-15 23:58N 32°51' E 035°00'0 0.0
2017-May-15 23:28N 32°51' E 035°00'0 0.0
2017-May-15 22:58N 32°51' E 035°00'0 0.1
2017-May-15 22:28N 32°51' E 035°00'0 0.0
2017-May-15 21:58N 32°51' E 035°00'0 0.1
2017-May-15 21:28N 32°51' E 035°00'0 0.0
2017-May-15 20:58N 32°51' E 035°00'0 0.1
2017-May-15 20:28N 32°51' E 035°00'0 0.0
2017-May-15 19:58N 32°51' E 035°00'0 0.0
2017-May-15 19:28N 32°51' E 035°00'0 0.0
2017-May-15 18:58N 32°51' E 035°00'0 0.0
2017-May-15 18:28N 32°51' E 035°00'0 0.0
2017-May-15 17:58N 32°51' E 035°00'0 0.0
2017-May-15 17:25N 32°51' E 035°00'0 0.0
2017-May-15 16:58N 32°51' E 035°00'0 0.0
2017-May-15 16:28N 32°51' E 035°00'0 0.0
2017-May-15 15:55N 32°51' E 035°00'0 0.0
2017-May-15 15:28N 32°51' E 035°00'0 0.0
2017-May-15 14:58N 32°51' E 035°00'0 0.0
2017-May-15 14:28N 32°51' E 035°00'0 0.0
2017-May-15 13:28N 32°51' E 035°00'0 0.0
2017-May-15 12:58N 32°51' E 035°00'0 0.0
2017-May-15 12:28N 32°51' E 035°00'0 0.0
2017-May-15 11:58N 32°51' E 035°00'0 0.0
2017-May-15 11:28N 32°51' E 035°00'0 0.0
2017-May-15 10:58N 32°51' E 035°00'0 0.0
2017-May-15 10:28N 32°51' E 035°00'0 0.0
2017-May-15 09:58N 32°51' E 035°00'0 0.0
2017-May-15 09:28N 32°51' E 035°00'0 0.0
2017-May-15 08:58N 32°51' E 035°00'0 0.0
2017-May-15 08:28N 32°51' E 035°00'0 0.0
2017-May-15 07:58N 32°51' E 035°00'0 0.0
2017-May-15 07:28N 32°51' E 035°00'0 0.0
2017-May-15 06:58N 32°51' E 035°00'0 0.0
2017-May-15 06:28N 32°51' E 035°00'0 0.0
2017-May-15 05:58N 32°51' E 035°00'0 0.0
2017-May-15 05:28N 32°51' E 035°00'0 0.0
2017-May-15 04:58N 32°51' E 035°00'0 0.0
2017-May-15 04:28N 32°51' E 035°00'0 0.0
2017-May-15 03:58N 32°51' E 035°00'0 0.1
2017-May-15 03:28N 32°51' E 035°00'0 0.0
2017-May-15 02:58N 32°51' E 035°00'0 0.0
2017-May-15 02:28N 32°51' E 035°00'0 0.0
2017-May-15 01:58N 32°51' E 035°00'0 0.0
2017-May-15 01:28N 32°51' E 035°00'0 0.0
2017-May-15 00:58N 32°51' E 035°00'0 0.0
2017-May-15 00:28N 32°51' E 035°00'0 0.0
2017-May-14 23:58N 32°51' E 034°60'0 0.1
2017-May-14 23:28N 32°51' E 034°60'0 0.0
2017-May-14 22:58N 32°51' E 034°60'0 0.0
2017-May-14 22:28N 32°51' E 034°60'0 0.0
2017-May-14 21:58N 32°51' E 034°60'0 0.0
2017-May-14 21:28N 32°51' E 034°60'0 0.1
2017-May-14 20:58N 32°51' E 035°00'0 0.0
2017-May-14 20:28N 32°51' E 035°00'0 0.1
2017-May-14 19:58N 32°51' E 035°00'0 0.0
2017-May-14 19:28N 32°51' E 035°00'0 0.0
2017-May-14 18:58N 32°51' E 035°00'0 0.0
2017-May-14 18:28N 32°51' E 035°00'0 0.1
2017-May-14 17:58N 32°51' E 035°00'0 0.0
2017-May-14 17:28N 32°51' E 035°00'0 0.0
2017-May-14 16:58N 32°51' E 035°00'0 0.0
2017-May-14 16:28N 32°51' E 035°00'0 0.0
2017-May-14 15:58N 32°51' E 035°00'0 0.0
2017-May-14 15:28N 32°51' E 035°00'0 0.0
2017-May-14 14:58N 32°51' E 035°00'0 0.0
2017-May-14 14:28N 32°51' E 035°00'0 0.0
2017-May-14 13:28N 32°51' E 035°00'0 0.0
2017-May-14 12:58N 32°51' E 035°00'0 0.0
2017-May-14 12:28N 32°51' E 035°00'0 0.0
2017-May-14 11:58N 32°51' E 035°00'0 0.0
2017-May-14 11:29N 32°51' E 035°00'0 0.0
2017-May-14 10:59N 32°51' E 035°00'0 0.0
2017-May-14 10:29N 32°51' E 035°00'0 0.0
2017-May-14 09:59N 32°51' E 035°00'0 0.0
2017-May-14 09:29N 32°51' E 035°00'0 0.0
2017-May-14 08:59N 32°51' E 035°00'0 0.0
2017-May-14 08:29N 32°51' E 035°00'0 0.0
2017-May-14 07:59N 32°51' E 035°00'0 0.1
2017-May-14 07:29N 32°51' E 035°00'0 0.0
2017-May-14 06:59N 32°51' E 035°00'0 0.0
2017-May-14 06:23N 32°51' E 035°00'0 0.1
2017-May-14 05:59N 32°51' E 035°00'0 0.0
2017-May-14 05:29N 32°51' E 035°00'0 0.0
2017-May-14 04:59N 32°51' E 035°00'0 0.0
2017-May-14 04:28N 32°51' E 035°00'0 0.0
2017-May-14 03:58N 32°51' E 035°00'0 0.1
2017-May-14 03:28N 32°51' E 035°00'0 0.1
2017-May-14 02:58N 32°51' E 035°00'0 0.0
2017-May-14 02:28N 32°51' E 035°00'0 0.2
2017-May-14 01:58N 32°51' E 035°00'0 0.0
2017-May-14 01:28N 32°51' E 035°00'0 0.0
2017-May-14 00:58N 32°51' E 035°00'0 0.0
2017-May-14 00:28N 32°51' E 035°00'0 0.0
2017-May-13 23:58N 32°51' E 035°00'0 0.0
2017-May-13 23:28N 32°51' E 035°00'0 0.0
2017-May-13 22:58N 32°51' E 035°00'0 0.0
2017-May-13 22:28N 32°51' E 035°00'0 0.0
2017-May-13 21:58N 32°51' E 035°00'0 0.1
2017-May-13 21:28N 32°51' E 035°00'0 0.0
2017-May-13 20:58N 32°51' E 035°00'0 0.1
2017-May-13 20:28N 32°51' E 035°00'0 0.0
2017-May-13 19:58N 32°51' E 035°00'0 0.0
2017-May-13 19:28N 32°51' E 035°00'0 0.0
2017-May-13 18:58N 32°51' E 035°00'0 0.0
2017-May-13 18:28N 32°51' E 035°00'0 0.0
2017-May-13 17:58N 32°51' E 035°00'0 0.0
2017-May-13 17:28N 32°51' E 035°00'0 0.0
2017-May-13 16:58N 32°51' E 035°00'0 0.0
2017-May-13 16:28N 32°51' E 035°00'0 0.0
2017-May-13 15:58N 32°51' E 035°00'0 0.0
2017-May-13 15:28N 32°51' E 035°00'0 0.0
2017-May-13 14:58N 32°51' E 035°00'0 0.0
2017-May-13 14:28N 32°51' E 035°00'0 0.0
2017-May-13 13:28N 32°51' E 035°00'0 0.0
2017-May-13 12:58N 32°51' E 035°00'0 0.0
2017-May-13 12:28N 32°51' E 035°00'0 0.0
2017-May-13 11:58N 32°51' E 035°00'0 0.0
2017-May-13 11:28N 32°51' E 035°00'0 0.0
2017-May-13 10:58N 32°51' E 035°00'0 0.0
2017-May-13 10:28N 32°51' E 035°00'0 0.0
2017-May-13 09:58N 32°51' E 035°00'0 0.0
2017-May-13 09:28N 32°51' E 035°00'0 0.0
2017-May-13 08:58N 32°51' E 035°00'0 0.0
2017-May-13 08:28N 32°51' E 035°00'0 0.0
2017-May-13 07:58N 32°51' E 035°00'0 0.1
2017-May-13 07:31N 32°51' E 035°00'1 2.0
2017-May-13 07:01N 32°51' E 034°59'2 4.0
2017-May-13 06:30N 32°52' E 034°57'4 6.9
2017-May-13 06:00N 32°53' E 034°53'30 7.6
2017-May-13 02:06N 32°58' E 034°18'1 7.4
2017-May-13 02:00N 32°58' E 034°18'5 7.1
2017-May-13 01:20N 32°59' E 034°12'3 7.2
2017-May-13 00:58N 32°60' E 034°09'7 7.3
2017-May-12 23:57N 33°01' E 034°00'3 7.4
2017-May-12 23:30N 33°03' E 033°57'4 7.5
2017-May-12 23:00N 33°06' E 033°54'4 7.8
2017-May-12 22:30N 33°09' E 033°51'5 8.1
2017-May-12 21:56N 33°13' E 033°47'3 8.2
2017-May-12 21:30N 33°15' E 033°45'212 7.6
2017-May-11 17:45N 35°31' E 030°27'  
Track history (hours):
 
Tides and Currents Weather Stations Pressure Air Temp Water Temp Dewpoint Dewpoint Depression Visibility Wind Speed Wind Dir Waves Ship Positions

Cherokee

Last reported at 2017-May-19 03:04 UTC. Time now 2017-May-27 23:14 UTC.
Position N 33°00' E 034°46'.
Warning: this ship's position is 8 days out of date.

Length 140 m; draft 2.7 m.

Type: Cargo ship. MMSI: 215059000.

Date/timePositionNaut miles runAvg speedWind from/ knotsBaromVisibWave heightAir tempDewpointWater temp
2017-May-19 03:04N 33°00' E 034°46'1 6.7
2017-May-19 02:58N 32°60' E 034°47'3 6.7
2017-May-19 02:28N 32°57' E 034°50'3 6.6
2017-May-19 02:01N 32°55' E 034°52'3 6.4
2017-May-19 01:31N 32°54' E 034°56'3 7.0
2017-May-19 01:01N 32°52' E 034°59'3 5.5
2017-May-19 00:31N 32°49' E 035°01'1 1.9
2017-May-19 00:00N 32°49' E 034°60'0 0.0
2017-May-18 23:30N 32°49' E 034°60'0 0.0
2017-May-18 23:00N 32°49' E 034°60'0 0.0
2017-May-18 22:30N 32°49' E 034°60'0 0.0
2017-May-18 22:00N 32°49' E 034°60'0 0.0
2017-May-18 21:30N 32°49' E 034°60'0 0.0
2017-May-18 21:00N 32°49' E 034°60'0 0.0
2017-May-18 20:30N 32°49' E 034°60'0 0.0
2017-May-18 20:00N 32°49' E 034°60'0 0.0
2017-May-18 19:30N 32°49' E 034°60'0 0.0
2017-May-18 19:00N 32°49' E 034°60'0 0.0
2017-May-18 18:30N 32°49' E 034°60'0 0.0
2017-May-18 18:00N 32°49' E 034°60'0 0.0
2017-May-18 17:30N 32°49' E 034°60'0 0.0
2017-May-18 16:54N 32°49' E 034°60'0 0.0
2017-May-18 16:30N 32°49' E 034°60'0 0.0
2017-May-18 16:00N 32°49' E 034°60'0 0.0
2017-May-18 15:30N 32°49' E 034°60'0 0.0
2017-May-18 15:00N 32°49' E 034°60'0 0.0
2017-May-18 14:00N 32°49' E 034°60'0 0.0
2017-May-18 13:30N 32°49' E 034°60'0 0.0
2017-May-18 13:00N 32°49' E 034°60'0 0.0
2017-May-18 12:30N 32°49' E 034°60'0 0.0
2017-May-18 12:00N 32°49' E 034°60'0 0.0
2017-May-18 11:30N 32°49' E 034°60'0 0.0
2017-May-18 11:00N 32°49' E 034°60'0 0.0
2017-May-18 10:30N 32°49' E 034°60'0 0.0
2017-May-18 10:00N 32°49' E 034°60'0 0.0
2017-May-18 09:30N 32°49' E 034°60'0 0.0
2017-May-18 09:00N 32°49' E 034°60'0 0.0
2017-May-18 08:30N 32°49' E 034°60'0 0.0
2017-May-18 08:00N 32°49' E 034°60'1 2.6
2017-May-18 07:30N 32°50' E 035°01'1 1.0
2017-May-18 06:49N 32°51' E 035°00'0 0.0
2017-May-18 06:28N 32°51' E 035°00'0 0.0
2017-May-18 05:58N 32°51' E 035°00'0 0.0
2017-May-18 05:28N 32°51' E 035°00'0 0.0
2017-May-18 04:58N 32°51' E 035°00'0 0.0
2017-May-18 04:28N 32°51' E 035°00'0 0.0
2017-May-18 03:58N 32°51' E 035°00'0 0.0
2017-May-18 03:28N 32°51' E 035°00'0 0.0
2017-May-18 02:58N 32°51' E 035°00'0 0.0
2017-May-18 02:28N 32°51' E 035°00'0 0.0
2017-May-18 01:58N 32°51' E 035°00'0 0.0
2017-May-18 01:28N 32°51' E 035°00'0 0.0
2017-May-18 00:58N 32°51' E 035°00'0 0.0
2017-May-18 00:28N 32°51' E 035°00'0 0.0
2017-May-17 23:58N 32°51' E 035°00'0 0.0
2017-May-17 23:28N 32°51' E 035°00'0 0.0
2017-May-17 22:58N 32°51' E 035°00'0 0.0
2017-May-17 22:28N 32°51' E 035°00'0 0.0
2017-May-17 21:58N 32°51' E 035°00'0 0.0
2017-May-17 21:28N 32°51' E 035°00'0 0.0
2017-May-17 20:58N 32°51' E 035°00'0 0.0
2017-May-17 20:28N 32°51' E 035°00'0 0.0
2017-May-17 19:58N 32°51' E 035°00'0 0.0
2017-May-17 19:28N 32°51' E 035°00'0 0.0
2017-May-17 18:58N 32°51' E 035°00'0 0.0
2017-May-17 16:07N 32°51' E 035°00'0 0.0
2017-May-17 15:58N 32°51' E 035°00'0 0.0
2017-May-17 15:28N 32°51' E 035°00'0 0.0
2017-May-17 14:58N 32°51' E 035°00'0 0.0
2017-May-17 14:28N 32°51' E 035°00'0 0.0
2017-May-17 13:28N 32°51' E 035°00'0 0.0
2017-May-17 12:58N 32°51' E 035°00'0 0.0
2017-May-17 12:28N 32°51' E 035°00'0 0.0
2017-May-17 11:58N 32°51' E 035°00'0 0.0
2017-May-17 11:28N 32°51' E 035°00'0 0.0
2017-May-17 10:58N 32°51' E 035°00'0 0.0
2017-May-17 10:28N 32°51' E 035°00'0 0.0
2017-May-17 09:58N 32°51' E 035°00'0 0.0
2017-May-17 09:28N 32°51' E 035°00'0 0.0
2017-May-17 08:58N 32°51' E 035°00'0 0.0
2017-May-17 08:28N 32°51' E 035°00'0 0.0
2017-May-17 07:58N 32°51' E 035°00'0 0.0
2017-May-17 07:28N 32°51' E 035°00'0 0.0
2017-May-17 06:58N 32°51' E 035°00'0 0.0
2017-May-17 06:28N 32°51' E 035°00'0 0.0
2017-May-17 05:58N 32°51' E 035°00'0 0.0
2017-May-17 05:28N 32°51' E 035°00'0 0.0
2017-May-17 04:58N 32°51' E 035°00'0 0.0
2017-May-17 04:28N 32°51' E 035°00'0 0.0
2017-May-17 03:58N 32°51' E 035°00'0 0.0
2017-May-17 03:28N 32°51' E 035°00'0 0.0
2017-May-17 02:58N 32°51' E 035°00'0 0.0
2017-May-17 02:28N 32°51' E 035°00'0 0.0
2017-May-17 01:58N 32°51' E 035°00'0 0.0
2017-May-17 01:28N 32°51' E 035°00'0 0.0
2017-May-17 00:58N 32°51' E 035°00'0 0.0
2017-May-17 00:28N 32°51' E 035°00'0 0.0
2017-May-16 23:58N 32°51' E 035°00'0 0.0
2017-May-16 23:28N 32°51' E 035°00'0 0.0
2017-May-16 22:55N 32°51' E 035°00'0 0.0
2017-May-16 22:28N 32°51' E 035°00'0 0.0
2017-May-16 21:58N 32°51' E 035°00'0 0.0
2017-May-16 21:28N 32°51' E 035°00'0 0.0
2017-May-16 20:58N 32°51' E 035°00'0 0.0
2017-May-16 20:28N 32°51' E 035°00'0 0.0
2017-May-16 19:58N 32°51' E 035°00'0 0.0
2017-May-16 19:28N 32°51' E 035°00'0 0.0
2017-May-16 18:58N 32°51' E 035°00'0 0.0
2017-May-16 18:28N 32°51' E 035°00'0 0.0
2017-May-16 17:58N 32°51' E 035°00'0 0.0
2017-May-16 17:28N 32°51' E 035°00'0 0.0
2017-May-16 16:58N 32°51' E 035°00'0 0.0
2017-May-16 16:28N 32°51' E 035°00'0 0.0
2017-May-16 15:58N 32°51' E 035°00'0 0.0
2017-May-16 15:28N 32°51' E 035°00'0 0.0
2017-May-16 14:58N 32°51' E 035°00'0 0.0
2017-May-16 14:28N 32°51' E 035°00'0 0.0
2017-May-16 13:28N 32°51' E 035°00'0 0.0
2017-May-16 12:58N 32°51' E 035°00'0 0.0
2017-May-16 12:28N 32°51' E 035°00'0 0.0
2017-May-16 11:58N 32°51' E 035°00'0 0.0
2017-May-16 11:28N 32°51' E 035°00'0 0.0
2017-May-16 10:58N 32°51' E 035°00'0 0.0
2017-May-16 10:28N 32°51' E 035°00'0 0.0
2017-May-16 09:58N 32°51' E 035°00'0 0.0
2017-May-16 09:28N 32°51' E 035°00'0 0.0
2017-May-16 08:58N 32°51' E 035°00'0 0.0
2017-May-16 08:28N 32°51' E 035°00'0 0.0
2017-May-16 07:58N 32°51' E 035°00'0 0.1
2017-May-16 07:28N 32°51' E 035°00'0 0.0
2017-May-16 06:58N 32°51' E 035°00'0 0.0
2017-May-16 06:28N 32°51' E 035°00'0 0.0
2017-May-16 05:58N 32°51' E 035°00'0 0.0
2017-May-16 05:28N 32°51' E 035°00'0 0.0
2017-May-16 04:58N 32°51' E 035°00'0 0.1
2017-May-16 04:28N 32°51' E 035°00'0 0.0
2017-May-16 03:58N 32°51' E 035°00'0 0.0
2017-May-16 03:28N 32°51' E 035°00'0 0.0
2017-May-16 02:58N 32°51' E 035°00'0 0.0
2017-May-16 02:28N 32°51' E 035°00'0 0.0
2017-May-16 01:58N 32°51' E 035°00'0 0.0
2017-May-16 01:28N 32°51' E 035°00'0 0.0
2017-May-16 00:55N 32°51' E 035°00'0 0.0
2017-May-16 00:28N 32°51' E 035°00'0 0.0
2017-May-15 23:58N 32°51' E 035°00'0 0.0
2017-May-15 23:28N 32°51' E 035°00'0 0.0
2017-May-15 22:58N 32°51' E 035°00'0 0.1
2017-May-15 22:28N 32°51' E 035°00'0 0.0
2017-May-15 21:58N 32°51' E 035°00'0 0.1
2017-May-15 21:28N 32°51' E 035°00'0 0.0
2017-May-15 20:58N 32°51' E 035°00'0 0.1
2017-May-15 20:28N 32°51' E 035°00'0 0.0
2017-May-15 19:58N 32°51' E 035°00'0 0.0
2017-May-15 19:28N 32°51' E 035°00'0 0.0
2017-May-15 18:58N 32°51' E 035°00'0 0.0
2017-May-15 18:28N 32°51' E 035°00'0 0.0
2017-May-15 17:58N 32°51' E 035°00'0 0.0
2017-May-15 17:25N 32°51' E 035°00'0 0.0
2017-May-15 16:58N 32°51' E 035°00'0 0.0
2017-May-15 16:28N 32°51' E 035°00'0 0.0
2017-May-15 15:55N 32°51' E 035°00'0 0.0
2017-May-15 15:28N 32°51' E 035°00'0 0.0
2017-May-15 14:58N 32°51' E 035°00'0 0.0
2017-May-15 14:28N 32°51' E 035°00'0 0.0
2017-May-15 13:28N 32°51' E 035°00'0 0.0
2017-May-15 12:58N 32°51' E 035°00'0 0.0
2017-May-15 12:28N 32°51' E 035°00'0 0.0
2017-May-15 11:58N 32°51' E 035°00'0 0.0
2017-May-15 11:28N 32°51' E 035°00'0 0.0
2017-May-15 10:58N 32°51' E 035°00'0 0.0
2017-May-15 10:28N 32°51' E 035°00'0 0.0
2017-May-15 09:58N 32°51' E 035°00'0 0.0
2017-May-15 09:28N 32°51' E 035°00'0 0.0
2017-May-15 08:58N 32°51' E 035°00'0 0.0
2017-May-15 08:28N 32°51' E 035°00'0 0.0
2017-May-15 07:58N 32°51' E 035°00'0 0.0
2017-May-15 07:28N 32°51' E 035°00'0 0.0
2017-May-15 06:58N 32°51' E 035°00'0 0.0
2017-May-15 06:28N 32°51' E 035°00'0 0.0
2017-May-15 05:58N 32°51' E 035°00'0 0.0
2017-May-15 05:28N 32°51' E 035°00'0 0.0
2017-May-15 04:58N 32°51' E 035°00'0 0.0
2017-May-15 04:28N 32°51' E 035°00'0 0.0
2017-May-15 03:58N 32°51' E 035°00'0 0.1
2017-May-15 03:28N 32°51' E 035°00'0 0.0
2017-May-15 02:58N 32°51' E 035°00'0 0.0
2017-May-15 02:28N 32°51' E 035°00'0 0.0
2017-May-15 01:58N 32°51' E 035°00'0 0.0
2017-May-15 01:28N 32°51' E 035°00'0 0.0
2017-May-15 00:58N 32°51' E 035°00'0 0.0
2017-May-15 00:28N 32°51' E 035°00'0 0.0
2017-May-14 23:58N 32°51' E 034°60'0 0.1
2017-May-14 23:28N 32°51' E 034°60'0 0.0
2017-May-14 22:58N 32°51' E 034°60'0 0.0
2017-May-14 22:28N 32°51' E 034°60'0 0.0
2017-May-14 21:58N 32°51' E 034°60'0 0.0
2017-May-14 21:28N 32°51' E 034°60'0 0.1
2017-May-14 20:58N 32°51' E 035°00'0 0.0
2017-May-14 20:28N 32°51' E 035°00'0 0.1
2017-May-14 19:58N 32°51' E 035°00'0 0.0
2017-May-14 19:28N 32°51' E 035°00'0 0.0
2017-May-14 18:58N 32°51' E 035°00'0 0.0
2017-May-14 18:28N 32°51' E 035°00'0 0.1
2017-May-14 17:58N 32°51' E 035°00'0 0.0
2017-May-14 17:28N 32°51' E 035°00'0 0.0
2017-May-14 16:58N 32°51' E 035°00'0 0.0
2017-May-14 16:28N 32°51' E 035°00'0 0.0
2017-May-14 15:58N 32°51' E 035°00'0 0.0
2017-May-14 15:28N 32°51' E 035°00'0 0.0
2017-May-14 14:58N 32°51' E 035°00'0 0.0
2017-May-14 14:28N 32°51' E 035°00'0 0.0
2017-May-14 13:28N 32°51' E 035°00'0 0.0
2017-May-14 12:58N 32°51' E 035°00'0 0.0
2017-May-14 12:28N 32°51' E 035°00'0 0.0
2017-May-14 11:58N 32°51' E 035°00'0 0.0
2017-May-14 11:29N 32°51' E 035°00'0 0.0
2017-May-14 10:59N 32°51' E 035°00'0 0.0
2017-May-14 10:29N 32°51' E 035°00'0 0.0
2017-May-14 09:59N 32°51' E 035°00'0 0.0
2017-May-14 09:29N 32°51' E 035°00'0 0.0
2017-May-14 08:59N 32°51' E 035°00'0 0.0
2017-May-14 08:29N 32°51' E 035°00'0 0.0
2017-May-14 07:59N 32°51' E 035°00'0 0.1
2017-May-14 07:29N 32°51' E 035°00'0 0.0
2017-May-14 06:59N 32°51' E 035°00'0 0.0
2017-May-14 06:23N 32°51' E 035°00'0 0.1
2017-May-14 05:59N 32°51' E 035°00'0 0.0
2017-May-14 05:29N 32°51' E 035°00'0 0.0
2017-May-14 04:59N 32°51' E 035°00'0 0.0
2017-May-14 04:28N 32°51' E 035°00'0 0.0
2017-May-14 03:58N 32°51' E 035°00'0 0.1
2017-May-14 03:28N 32°51' E 035°00'0 0.1
2017-May-14 02:58N 32°51' E 035°00'0 0.0
2017-May-14 02:28N 32°51' E 035°00'0 0.2
2017-May-14 01:58N 32°51' E 035°00'0 0.0
2017-May-14 01:28N 32°51' E 035°00'0 0.0
2017-May-14 00:58N 32°51' E 035°00'0 0.0
2017-May-14 00:28N 32°51' E 035°00'0 0.0
2017-May-13 23:58N 32°51' E 035°00'0 0.0
2017-May-13 23:28N 32°51' E 035°00'0 0.0
2017-May-13 22:58N 32°51' E 035°00'0 0.0
2017-May-13 22:28N 32°51' E 035°00'0 0.0
2017-May-13 21:58N 32°51' E 035°00'0 0.1
2017-May-13 21:28N 32°51' E 035°00'0 0.0
2017-May-13 20:58N 32°51' E 035°00'0 0.1
2017-May-13 20:28N 32°51' E 035°00'0 0.0
2017-May-13 19:58N 32°51' E 035°00'0 0.0
2017-May-13 19:28N 32°51' E 035°00'0 0.0
2017-May-13 18:58N 32°51' E 035°00'0 0.0
2017-May-13 18:28N 32°51' E 035°00'0 0.0
2017-May-13 17:58N 32°51' E 035°00'0 0.0
2017-May-13 17:28N 32°51' E 035°00'0 0.0
2017-May-13 16:58N 32°51' E 035°00'0 0.0
2017-May-13 16:28N 32°51' E 035°00'0 0.0
2017-May-13 15:58N 32°51' E 035°00'0 0.0
2017-May-13 15:28N 32°51' E 035°00'0 0.0
2017-May-13 14:58N 32°51' E 035°00'0 0.0
2017-May-13 14:28N 32°51' E 035°00'0 0.0
2017-May-13 13:28N 32°51' E 035°00'0 0.0
2017-May-13 12:58N 32°51' E 035°00'0 0.0
2017-May-13 12:28N 32°51' E 035°00'0 0.0
2017-May-13 11:58N 32°51' E 035°00'0 0.0
2017-May-13 11:28N 32°51' E 035°00'0 0.0
2017-May-13 10:58N 32°51' E 035°00'0 0.0
2017-May-13 10:28N 32°51' E 035°00'0 0.0
2017-May-13 09:58N 32°51' E 035°00'0 0.0
2017-May-13 09:28N 32°51' E 035°00'0 0.0
2017-May-13 08:58N 32°51' E 035°00'0 0.0
2017-May-13 08:28N 32°51' E 035°00'0 0.0
2017-May-13 07:58N 32°51' E 035°00'0 0.1
2017-May-13 07:31N 32°51' E 035°00'1 2.0
2017-May-13 07:01N 32°51' E 034°59'2 4.0
2017-May-13 06:30N 32°52' E 034°57'4 6.9
2017-May-13 06:00N 32°53' E 034°53'30 7.6
2017-May-13 02:06N 32°58' E 034°18'1 7.4
2017-May-13 02:00N 32°58' E 034°18'5 7.1
2017-May-13 01:20N 32°59' E 034°12'3 7.2
2017-May-13 00:58N 32°60' E 034°09'7 7.3
2017-May-12 23:57N 33°01' E 034°00'3 7.4
2017-May-12 23:30N 33°03' E 033°57'4 7.5
2017-May-12 23:00N 33°06' E 033°54'4 7.8
2017-May-12 22:30N 33°09' E 033°51'5 8.1
2017-May-12 21:56N 33°13' E 033°47'3 8.2
2017-May-12 21:30N 33°15' E 033°45'212 7.6
2017-May-11 17:45N 35°31' E 030°27'  

Dump ship's entire track history